sensor_id;sensor_type;location;lat;lon;timestamp;P1;durP1;ratioP1;P2;durP2;ratioP2
20314;SDS011;10315;50.958;13.080;2022-12-11T00:06:47;36.53;;;13.30;;
20314;SDS011;10315;50.958;13.080;2022-12-11T00:16:49;37.20;;;14.50;;
20314;SDS011;10315;50.958;13.080;2022-12-11T00:26:52;40.33;;;14.43;;
20314;SDS011;10315;50.958;13.080;2022-12-11T00:36:54;46.93;;;16.77;;
20314;SDS011;10315;50.958;13.080;2022-12-11T00:46:59;46.57;;;17.40;;
20314;SDS011;10315;50.958;13.080;2022-12-11T00:57:01;41.57;;;15.17;;
20314;SDS011;10315;50.958;13.080;2022-12-11T01:07:04;42.03;;;15.47;;
20314;SDS011;10315;50.958;13.080;2022-12-11T01:17:08;43.40;;;15.83;;
20314;SDS011;10315;50.958;13.080;2022-12-11T01:27:12;47.57;;;15.90;;
20314;SDS011;10315;50.958;13.080;2022-12-11T01:37:14;37.00;;;13.37;;
20314;SDS011;10315;50.958;13.080;2022-12-11T01:47:17;42.67;;;14.37;;
20314;SDS011;10315;50.958;13.080;2022-12-11T01:57:18;43.17;;;15.13;;
20314;SDS011;10315;50.958;13.080;2022-12-11T02:07:22;45.67;;;16.80;;
20314;SDS011;10315;50.958;13.080;2022-12-11T02:17:25;47.47;;;15.00;;
20314;SDS011;10315;50.958;13.080;2022-12-11T02:27:35;41.87;;;16.33;;
20314;SDS011;10315;50.958;13.080;2022-12-11T02:37:43;41.90;;;16.33;;
20314;SDS011;10315;50.958;13.080;2022-12-11T02:47:48;41.57;;;14.93;;
20314;SDS011;10315;50.958;13.080;2022-12-11T02:57:54;37.90;;;14.23;;
20314;SDS011;10315;50.958;13.080;2022-12-11T03:08:02;43.33;;;15.93;;
20314;SDS011;10315;50.958;13.080;2022-12-11T03:18:08;43.27;;;14.83;;
20314;SDS011;10315;50.958;13.080;2022-12-11T03:28:19;45.87;;;16.57;;
20314;SDS011;10315;50.958;13.080;2022-12-11T03:38:29;46.93;;;14.77;;
20314;SDS011;10315;50.958;13.080;2022-12-11T03:48:35;43.60;;;15.17;;
20314;SDS011;10315;50.958;13.080;2022-12-11T03:58:42;46.67;;;15.50;;
20314;SDS011;10315;50.958;13.080;2022-12-11T04:08:43;45.47;;;15.50;;
20314;SDS011;10315;50.958;13.080;2022-12-11T04:18:46;35.43;;;14.13;;
20314;SDS011;10315;50.958;13.080;2022-12-11T04:29:06;43.33;;;14.63;;
20314;SDS011;10315;50.958;13.080;2022-12-11T04:39:09;40.10;;;13.50;;
20314;SDS011;10315;50.958;13.080;2022-12-11T04:49:11;43.80;;;13.83;;
20314;SDS011;10315;50.958;13.080;2022-12-11T04:59:14;36.17;;;12.97;;
20314;SDS011;10315;50.958;13.080;2022-12-11T05:09:16;32.50;;;11.53;;
20314;SDS011;10315;50.958;13.080;2022-12-11T05:19:19;40.37;;;12.43;;
20314;SDS011;10315;50.958;13.080;2022-12-11T05:29:21;22.53;;;10.00;;
20314;SDS011;10315;50.958;13.080;2022-12-11T05:39:24;32.57;;;11.03;;
20314;SDS011;10315;50.958;13.080;2022-12-11T05:49:26;26.87;;;10.03;;
20314;SDS011;10315;50.958;13.080;2022-12-11T05:59:29;27.67;;;10.33;;
20314;SDS011;10315;50.958;13.080;2022-12-11T06:09:30;28.97;;;9.53;;
20314;SDS011;10315;50.958;13.080;2022-12-11T06:19:33;20.17;;;8.77;;
20314;SDS011;10315;50.958;13.080;2022-12-11T06:29:35;23.50;;;9.10;;
20314;SDS011;10315;50.958;13.080;2022-12-11T06:39:38;25.90;;;9.63;;
20314;SDS011;10315;50.958;13.080;2022-12-11T06:49:40;26.37;;;9.77;;
20314;SDS011;10315;50.958;13.080;2022-12-11T06:59:43;37.50;;;9.17;;
20314;SDS011;10315;50.958;13.080;2022-12-11T07:09:45;25.47;;;10.07;;
20314;SDS011;10315;50.958;13.080;2022-12-11T07:19:48;28.07;;;9.50;;
20314;SDS011;10315;50.958;13.080;2022-12-11T07:29:50;24.20;;;8.97;;
20314;SDS011;10315;50.958;13.080;2022-12-11T07:39:53;21.13;;;8.73;;
20314;SDS011;10315;50.958;13.080;2022-12-11T07:49:55;22.23;;;9.27;;
20314;SDS011;10315;50.958;13.080;2022-12-11T07:59:58;24.20;;;9.23;;
20314;SDS011;10315;50.958;13.080;2022-12-11T08:10:00;26.83;;;9.50;;
20314;SDS011;10315;50.958;13.080;2022-12-11T08:20:03;23.93;;;9.23;;
20314;SDS011;10315;50.958;13.080;2022-12-11T08:30:06;22.30;;;8.77;;
20314;SDS011;10315;50.958;13.080;2022-12-11T08:40:10;23.07;;;9.47;;
20314;SDS011;10315;50.958;13.080;2022-12-11T08:50:13;22.27;;;8.30;;
20314;SDS011;10315;50.958;13.080;2022-12-11T09:00:16;19.73;;;8.13;;
20314;SDS011;10315;50.958;13.080;2022-12-11T09:10:18;19.00;;;8.00;;
20314;SDS011;10315;50.958;13.080;2022-12-11T09:20:21;20.87;;;8.30;;
20314;SDS011;10315;50.958;13.080;2022-12-11T09:30:23;25.80;;;9.13;;
20314;SDS011;10315;50.958;13.080;2022-12-11T09:40:26;23.13;;;8.23;;
20314;SDS011;10315;50.958;13.080;2022-12-11T09:50:29;18.53;;;8.53;;
20314;SDS011;10315;50.958;13.080;2022-12-11T10:00:37;17.80;;;9.30;;
20314;SDS011;10315;50.958;13.080;2022-12-11T10:10:41;21.80;;;9.90;;
20314;SDS011;10315;50.958;13.080;2022-12-11T10:20:47;25.37;;;9.23;;
20314;SDS011;10315;50.958;13.080;2022-12-11T10:30:53;23.93;;;9.73;;
20314;SDS011;10315;50.958;13.080;2022-12-11T10:41:02;21.57;;;9.93;;
20314;SDS011;10315;50.958;13.080;2022-12-11T10:51:05;19.23;;;9.60;;
20314;SDS011;10315;50.958;13.080;2022-12-11T11:01:09;19.37;;;7.70;;
20314;SDS011;10315;50.958;13.080;2022-12-11T11:11:23;19.73;;;7.90;;
20314;SDS011;10315;50.958;13.080;2022-12-11T11:21:29;19.83;;;7.57;;
20314;SDS011;10315;50.958;13.080;2022-12-11T11:31:33;15.80;;;6.67;;
20314;SDS011;10315;50.958;13.080;2022-12-11T11:41:39;16.93;;;6.17;;
20314;SDS011;10315;50.958;13.080;2022-12-11T11:51:48;15.83;;;6.87;;
20314;SDS011;10315;50.958;13.080;2022-12-11T12:01:56;15.77;;;7.63;;
20314;SDS011;10315;50.958;13.080;2022-12-11T12:12:07;15.87;;;6.57;;
20314;SDS011;10315;50.958;13.080;2022-12-11T12:32:58;16.37;;;6.60;;
20314;SDS011;10315;50.958;13.080;2022-12-11T12:43:19;16.57;;;7.43;;
20314;SDS011;10315;50.958;13.080;2022-12-11T12:53:31;17.67;;;7.70;;
20314;SDS011;10315;50.958;13.080;2022-12-11T13:03:47;16.93;;;8.60;;
20314;SDS011;10315;50.958;13.080;2022-12-11T13:14:00;21.80;;;8.60;;
20314;SDS011;10315;50.958;13.080;2022-12-11T13:24:15;20.30;;;9.07;;
20314;SDS011;10315;50.958;13.080;2022-12-11T13:34:25;17.73;;;7.90;;
20314;SDS011;10315;50.958;13.080;2022-12-11T13:44:32;19.40;;;8.33;;
20314;SDS011;10315;50.958;13.080;2022-12-11T13:54:45;21.20;;;9.73;;
20314;SDS011;10315;50.958;13.080;2022-12-11T14:04:50;20.53;;;9.00;;
20314;SDS011;10315;50.958;13.080;2022-12-11T14:14:54;22.37;;;9.60;;
20314;SDS011;10315;50.958;13.080;2022-12-11T14:25:00;21.13;;;8.73;;
20314;SDS011;10315;50.958;13.080;2022-12-11T14:35:19;17.50;;;7.57;;
20314;SDS011;10315;50.958;13.080;2022-12-11T14:45:29;17.23;;;7.80;;
20314;SDS011;10315;50.958;13.080;2022-12-11T14:55:34;22.97;;;8.17;;
20314;SDS011;10315;50.958;13.080;2022-12-11T15:05:48;18.97;;;7.53;;
20314;SDS011;10315;50.958;13.080;2022-12-11T15:15:51;19.53;;;7.93;;
20314;SDS011;10315;50.958;13.080;2022-12-11T15:25:56;20.93;;;8.37;;
20314;SDS011;10315;50.958;13.080;2022-12-11T15:36:01;16.83;;;7.67;;
20314;SDS011;10315;50.958;13.080;2022-12-11T15:46:05;17.40;;;7.93;;
20314;SDS011;10315;50.958;13.080;2022-12-11T15:56:08;17.30;;;7.53;;
20314;SDS011;10315;50.958;13.080;2022-12-11T16:06:15;20.90;;;8.30;;
20314;SDS011;10315;50.958;13.080;2022-12-11T16:16:16;21.10;;;9.23;;
20314;SDS011;10315;50.958;13.080;2022-12-11T16:26:19;22.03;;;7.70;;
20314;SDS011;10315;50.958;13.080;2022-12-11T16:36:21;21.80;;;8.40;;
20314;SDS011;10315;50.958;13.080;2022-12-11T16:46:24;22.40;;;8.83;;
20314;SDS011;10315;50.958;13.080;2022-12-11T16:56:26;24.97;;;9.30;;
20314;SDS011;10315;50.958;13.080;2022-12-11T17:06:29;24.50;;;8.63;;
20314;SDS011;10315;50.958;13.080;2022-12-11T17:16:31;23.03;;;9.00;;
20314;SDS011;10315;50.958;13.080;2022-12-11T17:26:35;23.57;;;9.37;;
20314;SDS011;10315;50.958;13.080;2022-12-11T17:36:37;27.30;;;10.60;;
20314;SDS011;10315;50.958;13.080;2022-12-11T17:46:40;25.40;;;9.67;;
20314;SDS011;10315;50.958;13.080;2022-12-11T17:56:42;28.57;;;9.90;;
20314;SDS011;10315;50.958;13.080;2022-12-11T18:06:45;26.17;;;10.70;;
20314;SDS011;10315;50.958;13.080;2022-12-11T18:16:47;27.10;;;11.30;;
20314;SDS011;10315;50.958;13.080;2022-12-11T18:26:50;27.37;;;11.23;;
20314;SDS011;10315;50.958;13.080;2022-12-11T18:36:51;32.33;;;13.03;;
20314;SDS011;10315;50.958;13.080;2022-12-11T18:46:54;35.90;;;13.10;;
20314;SDS011;10315;50.958;13.080;2022-12-11T18:56:56;32.87;;;13.17;;
20314;SDS011;10315;50.958;13.080;2022-12-11T19:06:59;32.00;;;12.03;;
20314;SDS011;10315;50.958;13.080;2022-12-11T19:17:01;34.30;;;12.17;;
20314;SDS011;10315;50.958;13.080;2022-12-11T19:27:04;33.40;;;13.23;;
20314;SDS011;10315;50.958;13.080;2022-12-11T19:37:06;33.07;;;13.20;;
20314;SDS011;10315;50.958;13.080;2022-12-11T19:47:10;34.57;;;11.60;;
20314;SDS011;10315;50.958;13.080;2022-12-11T19:57:12;31.97;;;11.93;;
20314;SDS011;10315;50.958;13.080;2022-12-11T20:07:15;31.60;;;11.43;;
20314;SDS011;10315;50.958;13.080;2022-12-11T20:17:19;27.83;;;10.87;;
20314;SDS011;10315;50.958;13.080;2022-12-11T20:27:22;31.27;;;13.50;;
20314;SDS011;10315;50.958;13.080;2022-12-11T20:37:25;29.97;;;11.30;;
20314;SDS011;10315;50.958;13.080;2022-12-11T20:47:29;33.30;;;11.83;;
20314;SDS011;10315;50.958;13.080;2022-12-11T20:57:31;35.53;;;11.40;;
20314;SDS011;10315;50.958;13.080;2022-12-11T21:07:34;31.23;;;10.57;;
20314;SDS011;10315;50.958;13.080;2022-12-11T21:17:35;36.27;;;12.03;;
20314;SDS011;10315;50.958;13.080;2022-12-11T21:27:38;31.83;;;11.43;;
20314;SDS011;10315;50.958;13.080;2022-12-11T21:37:40;33.17;;;12.83;;
20314;SDS011;10315;50.958;13.080;2022-12-11T21:47:44;29.10;;;11.23;;
20314;SDS011;10315;50.958;13.080;2022-12-11T21:57:46;27.97;;;11.13;;
20314;SDS011;10315;50.958;13.080;2022-12-11T22:07:51;31.57;;;12.47;;
20314;SDS011;10315;50.958;13.080;2022-12-11T22:17:52;27.13;;;10.67;;
20314;SDS011;10315;50.958;13.080;2022-12-11T22:27:55;38.33;;;13.33;;
20314;SDS011;10315;50.958;13.080;2022-12-11T22:37:57;35.93;;;12.33;;
20314;SDS011;10315;50.958;13.080;2022-12-11T22:48:00;39.30;;;13.17;;
20314;SDS011;10315;50.958;13.080;2022-12-11T22:58:02;36.67;;;13.47;;
20314;SDS011;10315;50.958;13.080;2022-12-11T23:08:05;42.27;;;14.93;;
20314;SDS011;10315;50.958;13.080;2022-12-11T23:18:07;44.23;;;14.30;;
20314;SDS011;10315;50.958;13.080;2022-12-11T23:28:10;47.17;;;16.07;;
20314;SDS011;10315;50.958;13.080;2022-12-11T23:38:11;44.87;;;15.33;;
20314;SDS011;10315;50.958;13.080;2022-12-11T23:48:14;47.67;;;15.03;;
20314;SDS011;10315;50.958;13.080;2022-12-11T23:58:16;49.07;;;14.67;;
